Time;durP1;ratioP1;P1;durP2;ratioP2;P2;SDS_P1;SDS_P2;PMS_P1;PMS_P2;Temp;Humidity;BMP_temperature;BMP_pressure;BME280_temperature;BME280_humidity;BME280_pressure;Samples;Min_cycle;Max_cycle;Signal;HPM_P1;HPM_P2
2023/09/04 00:02:09;;;;;;;;;;;;;;;21.85;27.82;97846.78;5031323;28;1191;-77
2023/09/04 00:04:35;;;;;;;;;;;;;;;21.60;28.25;97849.53;5035973;28;894;-77
2023/09/04 00:07:02;;;;;;;;;;;;;;;21.37;28.46;97852.66;5035631;28;874;-77
2023/09/04 00:09:27;;;;;;;;;;;;;;;21.43;28.65;97856.50;5036038;28;1240;-77
2023/09/04 00:11:53;;;;;;;;;;;;;;;21.51;28.40;97857.91;5036015;28;1983;-78
2023/09/04 00:14:19;;;;;;;;;;;;;;;21.35;28.88;97855.13;5036131;28;996;-78
2023/09/04 00:16:44;;;;;;;;;;;;;;;21.39;28.76;97852.97;5035928;28;893;-77
2023/09/04 00:19:10;;;;;;;;;;;;;;;21.54;28.70;97854.97;5002881;28;1124;-77
2023/09/04 00:21:36;;;;;;;;;;;;;;;21.38;29.14;97837.25;5035732;28;985;-77
2023/09/04 00:24:01;;;;;;;;;;;;;;;21.29;28.99;97841.47;5035951;28;1072;-77
2023/09/04 00:26:27;;;;;;;;;;;;;;;21.49;28.78;97837.75;5019381;28;946;-77
2023/09/04 00:28:53;;;;;;;;;;;;;;;21.33;29.14;97836.56;5038016;28;1076;-77
2023/09/04 00:31:19;;;;;;;;;;;;;;;21.64;28.67;97838.91;5040336;28;1985;-77
2023/09/04 00:33:44;;;;;;;;;;;;;;;21.23;29.47;97831.94;5040169;28;1124;-78
2023/09/04 00:36:10;;;;;;;;;;;;;;;21.30;29.13;97828.97;5056540;28;935;-77
2023/09/04 00:38:36;;;;;;;;;;;;;;;21.49;29.04;97817.91;5056360;28;794;-78
2023/09/04 00:41:02;;;;;;;;;;;;;;;21.56;28.80;97820.56;5055462;28;1247;-78
2023/09/04 00:43:36;;;;;;;;;;;;;;;21.27;29.12;97810.00;5038491;28;917;-77
2023/09/04 00:46:03;;;;;;;;;;;;;;;21.39;29.05;97813.38;4999667;28;1326;-77
2023/09/04 00:48:28;;;;;;;;;;;;;;;21.67;28.15;97815.38;4999194;28;1098;-77
2023/09/04 00:50:54;;;;;;;;;;;;;;;21.25;28.85;97812.50;4995920;28;1939;-77
2023/09/04 00:53:19;;;;;;;;;;;;;;;21.46;28.98;97811.13;4995789;28;1318;-77
2023/09/04 00:55:45;;;;;;;;;;;;;;;21.87;28.00;97817.22;4979785;28;1040;-78
2023/09/04 00:58:11;;;;;;;;;;;;;;;21.55;28.67;97807.63;4979557;28;1287;-78
2023/09/04 01:00:37;;;;;;;;;;;;;;;21.79;27.86;97811.75;4995645;28;949;-77
2023/09/04 01:03:02;;;;;;;;;;;;;;;21.58;28.45;97807.53;4979300;28;1092;-78
2023/09/04 01:05:31;;;;;;;;;;;;;;;21.27;29.11;97803.56;4995660;28;1107;-78
2023/09/04 01:07:56;;;;;;;;;;;;;;;21.58;28.51;97801.06;4995761;28;1103;-77
2023/09/04 01:10:22;;;;;;;;;;;;;;;21.57;28.38;97799.50;4976012;28;1971;-77
2023/09/04 01:12:55;;;;;;;;;;;;;;;21.61;28.72;97800.19;4975822;28;925;-77
2023/09/04 01:15:21;;;;;;;;;;;;;;;21.56;28.82;97793.03;4976139;28;1312;-77
2023/09/04 01:17:47;;;;;;;;;;;;;;;21.30;29.29;97792.19;4975860;28;1267;-77
2023/09/04 01:20:28;;;;;;;;;;;;;;;21.58;28.88;97784.09;4994610;28;887;-77
2023/09/04 01:22:57;;;;;;;;;;;;;;;21.45;29.03;97788.91;4995510;28;1179;-78
2023/09/04 01:25:38;;;;;;;;;;;;;;;21.72;28.40;97791.38;4995533;28;2195;-78
2023/09/04 01:28:15;;;;;;;;;;;;;;;21.63;28.83;97794.06;4995498;28;1108;-77
2023/09/04 01:30:48;;;;;;;;;;;;;;;21.39;28.81;97787.88;4995469;28;1989;-77
2023/09/04 01:33:15;;;;;;;;;;;;;;;21.58;28.85;97789.75;4995402;28;1500;-78
2023/09/04 01:35:41;;;;;;;;;;;;;;;21.30;29.29;97778.03;4995442;28;909;-78
2023/09/04 01:38:06;;;;;;;;;;;;;;;21.43;28.92;97772.41;4995160;28;861;-78
2023/09/04 01:40:32;;;;;;;;;;;;;;;21.53;28.81;97770.50;5002032;28;1307;-77
2023/09/04 01:42:57;;;;;;;;;;;;;;;21.59;28.64;97774.34;5034581;28;999;-77
2023/09/04 01:45:23;;;;;;;;;;;;;;;21.51;28.82;97778.66;5037034;28;1169;-78
2023/09/04 01:47:50;;;;;;;;;;;;;;;21.54;28.84;97761.53;5039245;28;1127;-77
2023/09/04 01:50:16;;;;;;;;;;;;;;;21.50;28.71;97762.88;5056604;28;1993;-78
2023/09/04 01:52:41;;;;;;;;;;;;;;;21.54;28.57;97766.41;5056733;28;870;-77
2023/09/04 01:55:07;;;;;;;;;;;;;;;21.70;28.46;97768.34;5055835;28;783;-78
2023/09/04 01:57:33;;;;;;;;;;;;;;;21.28;29.09;97765.53;5057086;28;759;-77
2023/09/04 01:59:58;;;;;;;;;;;;;;;21.68;28.45;97765.19;5055297;28;1142;-78
2023/09/04 02:02:24;;;;;;;;;;;;;;;21.68;28.33;97768.81;5039017;28;1390;-77
2023/09/04 02:04:49;;;;;;;;;;;;;;;21.47;28.82;97767.44;5055233;28;890;-78
2023/09/04 02:07:16;;;;;;;;;;;;;;;21.43;28.79;97760.28;5054481;28;856;-78
2023/09/04 02:09:41;;;;;;;;;;;;;;;21.46;28.96;97765.06;5037470;28;1910;-78
2023/09/04 02:12:07;;;;;;;;;;;;;;;21.65;28.88;97772.53;5037667;28;1012;-77
2023/09/04 02:14:33;;;;;;;;;;;;;;;21.67;28.59;97764.41;5037570;28;1209;-77
2023/09/04 02:16:58;;;;;;;;;;;;;;;21.50;28.87;97758.03;5037858;28;1304;-77
2023/09/04 02:19:24;;;;;;;;;;;;;;;21.54;29.01;97755.88;5037427;28;1074;-78
2023/09/04 02:21:49;;;;;;;;;;;;;;;21.43;29.07;97760.28;5037791;28;1257;-77
2023/09/04 02:24:15;;;;;;;;;;;;;;;21.40;29.38;97758.34;5014354;28;1121;-77
2023/09/04 02:26:41;;;;;;;;;;;;;;;21.30;29.37;97761.06;5014824;28;1012;-77
2023/09/04 02:29:06;;;;;;;;;;;;;;;21.54;29.14;97761.53;5014377;28;1127;-77
2023/09/04 02:31:32;;;;;;;;;;;;;;;21.64;28.91;97764.50;5017546;28;1910;-77
2023/09/04 02:33:57;;;;;;;;;;;;;;;21.52;28.98;97757.59;5018429;28;924;-77
2023/09/04 02:36:23;;;;;;;;;;;;;;;21.58;28.94;97761.44;5018239;28;734;-77
2023/09/04 02:38:49;;;;;;;;;;;;;;;21.43;29.14;97755.41;5032645;28;1008;-77
2023/09/04 02:41:15;;;;;;;;;;;;;;;21.47;29.02;97761.75;5037617;28;891;-77
2023/09/04 02:43:40;;;;;;;;;;;;;;;21.47;29.02;97760.97;5037937;28;776;-78
2023/09/04 02:46:06;;;;;;;;;;;;;;;21.57;28.91;97765.53;5037648;28;903;-77
2023/09/04 02:48:31;;;;;;;;;;;;;;;21.97;28.09;97765.09;5037692;28;1233;-77
2023/09/04 02:50:58;;;;;;;;;;;;;;;21.52;28.98;97752.72;5017626;28;1965;-78
2023/09/04 02:53:26;;;;;;;;;;;;;;;21.48;28.95;97745.56;5001554;28;1181;-77
2023/09/04 02:55:52;;;;;;;;;;;;;;;21.35;29.32;97748.38;5005115;28;981;-77
2023/09/04 02:58:17;;;;;;;;;;;;;;;21.42;29.24;97747.38;5037598;28;1091;-78
2023/09/04 03:00:44;;;;;;;;;;;;;;;21.46;28.83;97753.72;5004630;28;1119;-77
2023/09/04 03:03:10;;;;;;;;;;;;;;;21.77;28.59;97751.94;5020568;28;1139;-77
2023/09/04 03:05:36;;;;;;;;;;;;;;;21.82;28.55;97754.22;5021031;28;1088;-77
2023/09/04 03:08:02;;;;;;;;;;;;;;;21.62;28.65;97752.84;5020507;28;1759;-77
2023/09/04 03:10:30;;;;;;;;;;;;;;;21.49;28.85;97752.81;5020907;28;1910;-77
2023/09/04 03:12:56;;;;;;;;;;;;;;;21.41;29.27;97752.25;5020691;28;1455;-77
2023/09/04 03:15:22;;;;;;;;;;;;;;;21.35;29.18;97744.75;5020525;28;1188;-78
2023/09/04 03:17:48;;;;;;;;;;;;;;;21.51;28.82;97758.84;4996837;28;1192;-79
2023/09/04 03:20:19;;;;;;;;;;;;;;;21.58;28.62;97750.13;4997039;28;1190;-78
2023/09/04 03:22:46;;;;;;;;;;;;;;;21.80;28.72;97756.69;4997109;28;1116;-78
2023/09/04 03:25:12;;;;;;;;;;;;;;;21.78;28.87;97755.56;4997204;28;1120;-78
2023/09/04 03:27:37;;;;;;;;;;;;;;;21.88;28.61;97745.16;5004611;28;916;-79
2023/09/04 03:30:03;;;;;;;;;;;;;;;21.50;29.24;97754.41;5016596;28;1914;-78
2023/09/04 03:32:29;;;;;;;;;;;;;;;21.68;28.91;97760.31;5000184;28;1138;-78
2023/09/04 03:34:55;;;;;;;;;;;;;;;21.62;28.94;97756.47;5016296;28;897;-78
2023/09/04 03:37:20;;;;;;;;;;;;;;;21.54;29.30;97761.53;4984319;28;1143;-78
2023/09/04 03:39:46;;;;;;;;;;;;;;;21.74;28.96;97764.16;4981034;28;1127;-78
2023/09/04 03:42:12;;;;;;;;;;;;;;;21.38;29.56;97763.66;4996943;28;907;-78
2023/09/04 03:44:37;;;;;;;;;;;;;;;21.31;29.64;97762.63;4996927;28;888;-78
2023/09/04 03:47:03;;;;;;;;;;;;;;;21.55;29.08;97768.00;4980837;28;878;-78
2023/09/04 03:49:29;;;;;;;;;;;;;;;21.43;29.48;97777.25;4965694;28;788;-78
2023/09/04 03:51:54;;;;;;;;;;;;;;;21.37;29.44;97773.41;4993835;28;1906;-78
2023/09/04 03:54:21;;;;;;;;;;;;;;;21.46;29.36;97782.03;4993648;28;1262;-78
2023/09/04 03:56:47;;;;;;;;;;;;;;;21.32;29.72;97778.38;4993722;28;1048;-77
2023/09/04 03:59:12;;;;;;;;;;;;;;;21.33;29.55;97779.16;4994214;28;1348;-78
2023/09/04 04:01:38;;;;;;;;;;;;;;;21.35;29.74;97775.88;5000288;28;1116;-78
2023/09/04 04:04:04;;;;;;;;;;;;;;;21.14;29.84;97799.88;4984250;28;1287;-78
2023/09/04 04:06:30;;;;;;;;;;;;;;;21.39;29.53;97787.88;5000339;28;1417;-78
2023/09/04 04:08:55;;;;;;;;;;;;;;;21.54;29.30;97786.22;4999938;28;898;-78
2023/09/04 04:11:22;;;;;;;;;;;;;;;21.62;28.98;97784.78;5045339;28;1969;-78
2023/09/04 04:13:48;;;;;;;;;;;;;;;21.49;28.98;97773.41;5059350;28;1231;-78
2023/09/04 04:16:13;;;;;;;;;;;;;;;21.67;28.69;97775.72;5059309;28;1163;-78
2023/09/04 04:18:39;;;;;;;;;;;;;;;21.65;28.78;97766.88;5059221;28;1242;-78
2023/09/04 04:21:05;;;;;;;;;;;;;;;21.66;28.81;97773.31;5075902;28;853;-78
2023/09/04 04:23:31;;;;;;;;;;;;;;;21.68;28.75;97765.19;5059168;28;1157;-78
2023/09/04 04:25:56;;;;;;;;;;;;;;;21.48;29.10;97762.56;5059285;28;1184;-78
2023/09/04 04:28:22;;;;;;;;;;;;;;;21.26;29.55;97768.81;5058763;28;1209;-78
2023/09/04 04:30:47;;;;;;;;;;;;;;;21.52;29.05;97769.69;5059022;28;1910;-78
2023/09/04 04:33:13;;;;;;;;;;;;;;;21.51;29.09;97773.00;5059525;28;1180;-78
2023/09/04 04:35:39;;;;;;;;;;;;;;;21.60;28.95;97758.94;5058979;28;1293;-79
2023/09/04 04:38:05;;;;;;;;;;;;;;;21.39;29.69;97762.41;5042550;28;1222;-78
2023/09/04 04:40:31;;;;;;;;;;;;;;;21.66;29.00;97750.69;5059034;28;1103;-78
2023/09/04 04:42:58;;;;;;;;;;;;;;;21.55;29.47;97756.66;5039842;28;1198;-78
2023/09/04 04:45:24;;;;;;;;;;;;;;;21.43;29.65;97760.28;5056664;28;1182;-78
2023/09/04 04:47:50;;;;;;;;;;;;;;;21.66;29.33;97762.81;5039851;28;1305;-78
2023/09/04 04:50:15;;;;;;;;;;;;;;;21.68;29.04;97756.69;5056560;28;1914;-78
2023/09/04 04:52:41;;;;;;;;;;;;;;;21.64;29.00;97761.66;5038809;28;1096;-78
2023/09/04 04:55:07;;;;;;;;;;;;;;;21.45;29.67;97754.94;5018179;28;1253;-78
2023/09/04 04:57:33;;;;;;;;;;;;;;;21.40;29.93;97761.16;5019057;28;1225;-78
2023/09/04 04:59:59;;;;;;;;;;;;;;;21.64;29.50;97758.84;5015409;28;1368;-78
2023/09/04 05:02:25;;;;;;;;;;;;;;;21.65;29.68;97758.38;4982990;28;1256;-78
2023/09/04 05:04:50;;;;;;;;;;;;;;;21.68;29.43;97759.53;5015858;28;1134;-78
2023/09/04 05:07:17;;;;;;;;;;;;;;;21.42;29.95;97764.34;4995679;28;1195;-78
2023/09/04 05:09:43;;;;;;;;;;;;;;;21.64;29.87;97768.13;4974763;28;1240;-78
2023/09/04 05:12:09;;;;;;;;;;;;;;;21.75;29.61;97771.41;4957181;29;1914;-78
2023/09/04 05:14:35;;;;;;;;;;;;;;;21.49;30.13;97789.63;4956840;29;908;-78
2023/09/04 05:17:01;;;;;;;;;;;;;;;21.50;30.14;97782.69;4956627;28;1308;-78
2023/09/04 05:19:30;;;;;;;;;;;;;;;21.58;29.86;97784.09;4956347;28;1135;-77
2023/09/04 05:21:55;;;;;;;;;;;;;;;21.38;30.28;97780.66;4957175;29;1713;-77
2023/09/04 05:24:21;;;;;;;;;;;;;;;21.51;30.12;97785.09;4917964;29;950;-78
2023/09/04 05:26:47;;;;;;;;;;;;;;;21.58;29.87;97784.09;4902701;29;999;-78
2023/09/04 05:29:12;;;;;;;;;;;;;;;21.61;30.15;97783.19;4918290;29;1194;-78
2023/09/04 05:31:38;;;;;;;;;;;;;;;21.74;29.83;97786.84;4918440;29;1919;-78
2023/09/04 05:34:03;;;;;;;;;;;;;;;21.38;30.16;97794.78;4902657;29;1171;-78
2023/09/04 05:36:29;;;;;;;;;;;;;;;21.81;29.68;97803.63;4907357;29;1031;-78
2023/09/04 05:38:54;;;;;;;;;;;;;;;21.42;30.49;97810.44;4956644;28;1150;-77
2023/09/04 05:41:20;;;;;;;;;;;;;;;21.54;30.35;97811.72;4959617;28;1129;-78
2023/09/04 05:43:46;;;;;;;;;;;;;;;21.83;29.78;97812.44;4961809;28;1742;-77
2023/09/04 05:46:11;;;;;;;;;;;;;;;21.75;29.68;97810.28;4995367;28;886;-78
2023/09/04 05:48:37;;;;;;;;;;;;;;;21.80;29.80;97804.84;4994824;28;918;-78
2023/09/04 05:51:02;;;;;;;;;;;;;;;21.82;29.71;97808.03;4994828;28;1985;-78
2023/09/04 05:53:29;;;;;;;;;;;;;;;21.52;29.78;97805.72;4978724;28;1091;-78
2023/09/04 05:56:04;;;;;;;;;;;;;;;21.76;29.53;97807.00;5022605;28;1072;-77
2023/09/04 05:58:29;;;;;;;;;;;;;;;21.56;30.14;97810.03;5021240;28;1271;-78
2023/09/04 06:00:55;;;;;;;;;;;;;;;21.64;30.01;97813.44;5021380;28;1115;-78
2023/09/04 06:03:21;;;;;;;;;;;;;;;21.81;29.73;97820.63;5037493;28;754;-78
2023/09/04 06:05:46;;;;;;;;;;;;;;;21.72;29.82;97811.97;5023556;28;1411;-78
2023/09/04 06:08:12;;;;;;;;;;;;;;;21.56;29.89;97820.56;5041702;28;1107;-77
2023/09/04 06:10:37;;;;;;;;;;;;;;;21.81;29.54;97812.13;5058509;28;1910;-77
2023/09/04 06:13:03;;;;;;;;;;;;;;;21.66;29.91;97808.13;5065231;28;1165;-78
2023/09/04 06:15:29;;;;;;;;;;;;;;;21.83;29.36;97812.44;5065005;28;1142;-78
2023/09/04 06:17:54;;;;;;;;;;;;;;;21.87;29.35;97805.91;5075799;28;872;-79
2023/09/04 06:20:20;;;;;;;;;;;;;;;21.55;30.02;97801.97;5059212;28;986;-78
2023/09/04 06:22:46;;;;;;;;;;;;;;;21.64;29.67;97799.28;5058318;28;1314;-78
2023/09/04 06:25:11;;;;;;;;;;;;;;;21.72;29.56;97806.31;5057831;28;859;-78
2023/09/04 06:27:37;;;;;;;;;;;;;;;22.00;29.03;97803.84;5058018;28;884;-78
2023/09/04 06:30:05;;;;;;;;;;;;;;;21.89;29.07;97803.41;5041192;28;1910;-77
2023/09/04 06:32:31;;;;;;;;;;;;;;;21.81;29.27;97802.81;5041267;28;954;-78
2023/09/04 06:34:56;;;;;;;;;;;;;;;21.71;29.78;97804.75;5024718;28;1258;-78
2023/09/04 06:37:22;;;;;;;;;;;;;;;21.63;29.73;97809.00;5041123;28;886;-78
2023/09/04 06:39:47;;;;;;;;;;;;;;;21.74;29.67;97798.16;5040970;28;1115;-78
2023/09/04 06:42:13;;;;;;;;;;;;;;;21.76;29.55;97792.84;5041255;28;991;-78
2023/09/04 06:44:39;;;;;;;;;;;;;;;21.83;29.66;97795.44;5037709;28;1212;-78
2023/09/04 06:47:04;;;;;;;;;;;;;;;21.67;29.84;97792.72;5037425;28;891;-78
2023/09/04 06:49:30;;;;;;;;;;;;;;;21.76;29.50;97794.88;5021030;28;1293;-77
2023/09/04 06:51:56;;;;;;;;;;;;;;;21.72;29.65;97800.66;5037352;28;1983;-78
2023/09/04 06:54:21;;;;;;;;;;;;;;;21.73;29.76;97796.56;5052458;28;924;-78
2023/09/04 06:56:47;;;;;;;;;;;;;;;21.74;29.79;97808.69;5024255;28;1129;-78
2023/09/04 06:59:12;;;;;;;;;;;;;;;21.68;29.85;97808.47;5040425;28;928;-78
2023/09/04 07:01:38;;;;;;;;;;;;;;;21.82;29.63;97822.19;5057197;28;871;-78
2023/09/04 07:04:05;;;;;;;;;;;;;;;21.68;29.86;97810.50;5040831;28;930;-78
2023/09/04 07:06:30;;;;;;;;;;;;;;;21.72;29.74;97806.31;5020773;28;1105;-78
2023/09/04 07:08:56;;;;;;;;;;;;;;;21.43;30.25;97799.91;5037022;28;900;-78
2023/09/04 07:11:22;;;;;;;;;;;;;;;21.61;30.08;97817.19;5036993;28;1879;-78
2023/09/04 07:13:47;;;;;;;;;;;;;;;21.64;29.78;97818.31;5004395;28;1443;-78
2023/09/04 07:16:13;;;;;;;;;;;;;;;21.87;29.44;97822.88;5034861;28;911;-77
2023/09/04 07:18:39;;;;;;;;;;;;;;;21.66;29.76;97813.78;5023274;28;1269;-78
2023/09/04 07:21:04;;;;;;;;;;;;;;;21.81;29.74;97814.94;5040227;28;946;-77
2023/09/04 07:23:30;;;;;;;;;;;;;;;21.62;30.08;97813.09;4997187;28;898;-78
2023/09/04 07:25:56;;;;;;;;;;;;;;;21.49;30.24;97820.75;4981233;28;1241;-77
2023/09/04 07:28:21;;;;;;;;;;;;;;;21.63;30.31;97814.69;4965024;28;1238;-78
2023/09/04 07:30:47;;;;;;;;;;;;;;;21.72;29.95;97817.66;4997148;28;1890;-77
2023/09/04 07:33:12;;;;;;;;;;;;;;;21.71;30.11;97816.06;4997507;28;819;-78
2023/09/04 07:35:38;;;;;;;;;;;;;;;21.80;30.06;97824.66;4997138;28;1041;-78
2023/09/04 07:38:03;;;;;;;;;;;;;;;21.77;30.09;97828.41;5011777;28;1033;-78
2023/09/04 07:40:29;;;;;;;;;;;;;;;22.03;29.70;97825.63;5000463;28;1135;-78
2023/09/04 07:42:54;;;;;;;;;;;;;;;21.80;30.04;97836.00;5000720;28;1057;-78
2023/09/04 07:45:22;;;;;;;;;;;;;;;21.80;29.95;97836.00;5000570;28;1254;-78
2023/09/04 07:47:48;;;;;;;;;;;;;;;21.83;29.83;97835.09;5016609;28;1442;-78
2023/09/04 07:50:14;;;;;;;;;;;;;;;21.91;29.68;97835.66;5016523;28;1965;-78
2023/09/04 07:52:39;;;;;;;;;;;;;;;21.82;30.04;97832.72;5016231;28;1153;-77
2023/09/04 07:55:08;;;;;;;;;;;;;;;21.59;30.53;97842.28;5016427;28;1194;-78
2023/09/04 07:57:34;;;;;;;;;;;;;;;21.45;30.75;97831.38;4996492;28;960;-78
2023/09/04 08:00:00;;;;;;;;;;;;;;;21.68;30.31;97819.00;5003923;28;1215;-78
2023/09/04 08:02:26;;;;;;;;;;;;;;;21.83;30.04;97823.78;5039431;28;1333;-78
2023/09/04 08:04:52;;;;;;;;;;;;;;;21.64;30.40;97821.91;5022987;28;1119;-78
2023/09/04 08:07:17;;;;;;;;;;;;;;;22.02;29.76;97829.69;5039127;28;904;-77
2023/09/04 08:09:43;;;;;;;;;;;;;;;21.65;30.41;97826.34;5055864;28;1048;-78
2023/09/04 08:12:08;;;;;;;;;;;;;;;21.50;30.66;97828.00;5039350;28;1987;-78
2023/09/04 08:14:36;;;;;;;;;;;;;;;21.67;30.24;97826.69;5055689;28;1007;-78
2023/09/04 08:17:02;;;;;;;;;;;;;;;21.74;29.95;97837.81;5056347;28;789;-77
2023/09/04 08:19:27;;;;;;;;;;;;;;;21.55;30.49;97836.75;5056012;28;817;-77
2023/09/04 08:21:53;;;;;;;;;;;;;;;21.71;30.16;97837.91;5055729;28;987;-78
2023/09/04 08:24:19;;;;;;;;;;;;;;;21.98;29.59;97834.69;5022360;28;869;-78
2023/09/04 08:26:45;;;;;;;;;;;;;;;21.84;30.07;97825.34;5022635;28;1056;-78
2023/09/04 08:29:10;;;;;;;;;;;;;;;21.85;30.02;97838.28;5056887;28;967;-78
2023/09/04 08:31:36;;;;;;;;;;;;;;;21.92;29.91;97833.66;5039909;28;1910;-78
2023/09/04 08:34:02;;;;;;;;;;;;;;;21.81;30.20;97837.59;5056332;28;1066;-78
2023/09/04 08:36:29;;;;;;;;;;;;;;;21.76;30.10;97849.50;5039446;28;1017;-78
2023/09/04 08:38:55;;;;;;;;;;;;;;;21.89;29.76;97845.88;5056585;28;1076;-78
2023/09/04 08:41:21;;;;;;;;;;;;;;;21.85;30.00;97837.47;5057556;28;774;-78
2023/09/04 08:43:46;;;;;;;;;;;;;;;21.78;29.93;97844.16;5056328;28;952;-78
2023/09/04 08:46:12;;;;;;;;;;;;;;;21.99;29.53;97841.94;5055769;28;1016;-78
2023/09/04 08:48:39;;;;;;;;;;;;;;;21.71;30.06;97850.06;5038727;28;942;-78
2023/09/04 08:51:04;;;;;;;;;;;;;;;21.45;30.34;97837.03;5022491;28;1983;-77
2023/09/04 08:53:30;;;;;;;;;;;;;;;21.83;29.84;97839.97;5015153;28;910;-77
2023/09/04 08:55:56;;;;;;;;;;;;;;;21.87;29.76;97834.22;5015868;28;837;-78
2023/09/04 08:58:21;;;;;;;;;;;;;;;21.94;29.38;97826.28;5015199;28;960;-78
2023/09/04 09:00:47;;;;;;;;;;;;;;;21.98;29.53;97843.97;5015774;28;1135;-78
2023/09/04 09:03:12;;;;;;;;;;;;;;;22.09;29.04;97838.75;5015500;28;883;-78
2023/09/04 09:05:38;;;;;;;;;;;;;;;22.01;29.07;97840.22;5015680;28;936;-78
2023/09/04 09:08:04;;;;;;;;;;;;;;;21.73;29.46;97826.94;5015558;28;977;-78
2023/09/04 09:10:30;;;;;;;;;;;;;;;21.79;29.73;97833.63;5015551;28;1918;-78
2023/09/04 09:12:55;;;;;;;;;;;;;;;21.70;29.92;97839.94;5015144;28;936;-78
2023/09/04 09:15:21;;;;;;;;;;;;;;;21.70;29.93;97848.44;5015225;28;1320;-78
2023/09/04 09:17:50;;;;;;;;;;;;;;;21.65;29.61;97834.84;5029862;28;1041;-78
2023/09/04 09:20:34;;;;;;;;;;;;;;;21.92;29.40;97839.31;5034612;28;922;-78
2023/09/04 09:23:00;;;;;;;;;;;;;;;21.79;29.38;97828.75;5034674;28;790;-78
2023/09/04 09:25:27;;;;;;;;;;;;;;;21.58;29.88;97832.22;5038657;28;1209;-78
2023/09/04 09:27:57;;;;;;;;;;;;;;;21.95;29.36;97829.91;5055596;28;1130;-78
2023/09/04 09:30:22;;;;;;;;;;;;;;;21.91;29.53;97829.22;5035370;28;1969;-78
2023/09/04 09:32:50;;;;;;;;;;;;;;;21.77;29.50;97816.31;5035907;28;752;-78
2023/09/04 09:35:16;;;;;;;;;;;;;;;21.91;29.51;97813.00;5052027;28;837;-78
2023/09/04 09:37:42;;;;;;;;;;;;;;;21.85;29.49;97809.94;5035987;28;1431;-78
2023/09/04 09:40:08;;;;;;;;;;;;;;;21.91;29.51;97823.56;5035237;28;1203;-78
2023/09/04 09:42:34;;;;;;;;;;;;;;;22.00;29.33;97823.69;5034582;28;879;-79
2023/09/04 09:45:00;;;;;;;;;;;;;;;21.72;29.89;97811.97;5034656;28;951;-78
2023/09/04 09:47:26;;;;;;;;;;;;;;;22.00;29.31;97818.81;5018525;28;794;-77
2023/09/04 09:49:51;;;;;;;;;;;;;;;22.11;29.15;97812.84;5034742;28;864;-78
2023/09/04 09:52:17;;;;;;;;;;;;;;;22.27;29.02;97801.38;5017969;28;1914;-78
2023/09/04 09:54:43;;;;;;;;;;;;;;;21.74;29.73;97815.16;5034902;28;823;-77
2023/09/04 09:57:12;;;;;;;;;;;;;;;21.87;29.51;97818.00;5034704;28;903;-78
2023/09/04 09:59:40;;;;;;;;;;;;;;;21.67;29.87;97815.38;5034207;28;966;-79
2023/09/04 10:02:06;;;;;;;;;;;;;;;21.83;29.40;97815.28;5034384;28;939;-77
2023/09/04 10:04:31;;;;;;;;;;;;;;;21.58;29.90;97818.06;4998067;28;1254;-77
2023/09/04 10:07:00;;;;;;;;;;;;;;;21.92;29.35;97820.28;4998119;28;1241;-77
2023/09/04 10:09:26;;;;;;;;;;;;;;;21.56;30.11;97812.06;4998154;28;952;-77
2023/09/04 10:12:07;;;;;;;;;;;;;;;21.92;29.42;97814.63;5014323;28;1922;-77
2023/09/04 10:14:35;;;;;;;;;;;;;;;22.15;29.21;97816.34;5033011;28;970;-77
2023/09/04 10:17:01;;;;;;;;;;;;;;;22.01;29.56;97822.44;5034779;28;896;-77
2023/09/04 10:19:30;;;;;;;;;;;;;;;22.14;29.05;97811.94;5017834;28;1170;-77
2023/09/04 10:22:09;;;;;;;;;;;;;;;22.03;29.32;97814.28;5018112;28;1103;-78
2023/09/04 10:24:39;;;;;;;;;;;;;;;21.88;29.78;97818.81;5033967;28;806;-77
2023/09/04 10:27:05;;;;;;;;;;;;;;;21.65;29.87;97822.72;5033940;28;810;-77
2023/09/04 10:29:31;;;;;;;;;;;;;;;21.84;29.71;97818.91;5017776;28;903;-77
2023/09/04 10:31:57;;;;;;;;;;;;;;;21.91;29.69;97824.34;5017636;28;1910;-77
2023/09/04 10:34:22;;;;;;;;;;;;;;;21.90;29.43;97821.97;5017318;28;882;-78
2023/09/04 10:36:48;;;;;;;;;;;;;;;21.77;29.48;97813.47;5035258;28;818;-78
2023/09/04 10:39:14;;;;;;;;;;;;;;;21.88;29.40;97813.94;5034994;28;819;-78
2023/09/04 10:41:39;;;;;;;;;;;;;;;21.65;29.73;97805.72;5014104;28;963;-77
2023/09/04 10:44:05;;;;;;;;;;;;;;;21.88;29.55;97813.13;4997808;28;979;-77
2023/09/04 10:46:30;;;;;;;;;;;;;;;21.96;29.12;97806.00;4998116;28;1482;-77
2023/09/04 10:48:56;;;;;;;;;;;;;;;21.98;29.26;97815.63;5014082;28;945;-77
2023/09/04 10:51:24;;;;;;;;;;;;;;;21.72;29.96;97811.97;5008117;28;2008;-77
2023/09/04 10:53:50;;;;;;;;;;;;;;;21.88;29.75;97808.25;5021171;28;1369;-77
2023/09/04 10:56:16;;;;;;;;;;;;;;;21.95;29.42;97812.91;5020886;28;1129;-77
2023/09/04 10:58:57;;;;;;;;;;;;;;;21.91;29.57;97815.06;5021151;28;719;-77
2023/09/04 11:01:35;;;;;;;;;;;;;;;21.64;29.79;97812.63;5020700;28;898;-77
2023/09/04 11:04:05;;;;;;;;;;;;;;;21.84;29.54;97811.19;5021091;28;977;-77
2023/09/04 11:06:37;;;;;;;;;;;;;;;21.83;29.57;97806.78;4978057;28;1004;-77
2023/09/04 11:09:03;;;;;;;;;;;;;;;22.01;29.29;97809.06;4978334;28;940;-77
2023/09/04 11:11:28;;;;;;;;;;;;;;;21.92;29.44;97808.16;4978646;28;1977;-77
2023/09/04 11:14:00;;;;;;;;;;;;;;;22.09;29.07;97803.97;5001036;28;794;-78
2023/09/04 11:16:26;;;;;;;;;;;;;;;21.90;29.31;97799.31;5000839;28;851;-77
2023/09/04 11:19:02;;;;;;;;;;;;;;;21.83;29.46;97803.94;4984677;28;1222;-77
2023/09/04 11:21:31;;;;;;;;;;;;;;;21.84;29.63;97797.03;5001361;28;922;-77
2023/09/04 11:23:56;;;;;;;;;;;;;;;21.97;29.38;97793.44;5000971;28;878;-78
2023/09/04 11:26:22;;;;;;;;;;;;;;;22.07;29.20;97780.94;5001104;28;858;-76
2023/09/04 11:28:47;;;;;;;;;;;;;;;22.12;29.35;97791.75;5000820;28;850;-77
2023/09/04 11:31:13;;;;;;;;;;;;;;;21.98;29.64;97775.19;4984417;28;1987;-77
2023/09/04 11:33:39;;;;;;;;;;;;;;;21.84;29.73;97776.41;4984689;28;1597;-78
2023/09/04 11:36:05;;;;;;;;;;;;;;;21.98;29.48;97772.34;5017298;28;1071;-79
2023/09/04 11:38:31;;;;;;;;;;;;;;;22.18;29.07;97769.31;5035261;28;1051;-77
2023/09/04 11:40:56;;;;;;;;;;;;;;;21.83;29.40;97760.69;5020752;28;886;-77
2023/09/04 11:43:22;;;;;;;;;;;;;;;21.99;29.30;97759.78;5051497;28;1037;-77
2023/09/04 11:45:55;;;;;;;;;;;;;;;22.07;29.25;97752.59;5040253;28;936;-78
2023/09/04 11:48:21;;;;;;;;;;;;;;;22.03;29.33;97749.91;5040585;28;990;-77
2023/09/04 11:50:46;;;;;;;;;;;;;;;21.91;29.81;97747.06;5056801;28;1917;-77
2023/09/04 11:53:12;;;;;;;;;;;;;;;22.16;29.01;97749.91;5023648;28;860;-77
2023/09/04 11:55:37;;;;;;;;;;;;;;;22.11;29.27;97753.31;5056526;28;1134;-77
2023/09/04 11:58:03;;;;;;;;;;;;;;;22.19;29.02;97737.69;5040280;28;819;-77
2023/09/04 12:00:29;;;;;;;;;;;;;;;21.97;29.35;97748.91;5056465;28;995;-77
2023/09/04 12:02:54;;;;;;;;;;;;;;;22.23;29.14;97738.38;5022697;28;1243;-77
2023/09/04 12:05:20;;;;;;;;;;;;;;;22.14;29.37;97752.44;5039537;28;1056;-77
2023/09/04 12:07:46;;;;;;;;;;;;;;;21.99;29.68;97756.94;5039464;28;917;-77
2023/09/04 12:10:12;;;;;;;;;;;;;;;21.73;29.88;97765.44;5055572;28;1898;-78
2023/09/04 12:12:38;;;;;;;;;;;;;;;21.82;29.59;97765.56;5039610;28;752;-77
2023/09/04 12:15:04;;;;;;;;;;;;;;;22.00;29.44;97761.34;5056103;28;1013;-78
2023/09/04 12:17:30;;;;;;;;;;;;;;;22.12;29.16;97766.25;5039896;28;841;-78
2023/09/04 12:19:56;;;;;;;;;;;;;;;22.11;29.03;97770.31;5023349;28;943;-77
2023/09/04 12:22:21;;;;;;;;;;;;;;;21.94;29.68;97769.63;5040706;28;783;-77
2023/09/04 12:25:05;;;;;;;;;;;;;;;22.30;28.83;97768.50;5040494;28;1167;-77
2023/09/04 12:27:32;;;;;;;;;;;;;;;22.15;29.17;97771.00;5040463;28;903;-77
2023/09/04 12:29:58;;;;;;;;;;;;;;;21.99;29.59;97757.72;5040314;28;894;-78
2023/09/04 12:32:23;;;;;;;;;;;;;;;21.91;29.67;97772.56;5040513;28;1906;-77
2023/09/04 12:34:50;;;;;;;;;;;;;;;21.77;29.76;97768.94;5056992;28;865;-77
2023/09/04 12:37:19;;;;;;;;;;;;;;;21.96;29.65;97774.84;5039921;28;1134;-78
2023/09/04 12:39:44;;;;;;;;;;;;;;;21.99;29.54;97771.91;5040197;28;1142;-77
2023/09/04 12:42:10;;;;;;;;;;;;;;;21.81;30.06;97777.31;5039968;28;1127;-78
2023/09/04 12:44:35;;;;;;;;;;;;;;;21.63;30.32;97780.69;5056398;28;921;-78
2023/09/04 12:47:01;;;;;;;;;;;;;;;21.99;29.67;97790.94;5038832;28;1472;-78
2023/09/04 12:49:28;;;;;;;;;;;;;;;22.12;29.18;97786.06;5055254;28;1000;-77
2023/09/04 12:51:53;;;;;;;;;;;;;;;22.14;29.34;97779.97;5055124;28;1956;-78
2023/09/04 12:54:19;;;;;;;;;;;;;;;22.29;28.94;97776.22;5038811;28;1162;-77
2023/09/04 12:56:45;;;;;;;;;;;;;;;22.27;28.66;97784.38;5055323;28;877;-78